sensor_id;sensor_type;location;lat;lon;timestamp;P1;durP1;ratioP1;P2;durP2;ratioP2
11847;SDS011;5983;49.966;8.052;2023-06-10T00:02:14;5.00;;;4.07;;
11847;SDS011;5983;49.966;8.052;2023-06-10T00:04:42;6.03;;;4.40;;
11847;SDS011;5983;49.966;8.052;2023-06-10T00:07:09;5.53;;;4.67;;
11847;SDS011;5983;49.966;8.052;2023-06-10T00:09:36;8.57;;;4.63;;
11847;SDS011;5983;49.966;8.052;2023-06-10T00:12:04;6.53;;;4.30;;
11847;SDS011;5983;49.966;8.052;2023-06-10T00:14:34;5.33;;;4.53;;
11847;SDS011;5983;49.966;8.052;2023-06-10T00:17:04;5.27;;;4.30;;
11847;SDS011;5983;49.966;8.052;2023-06-10T00:19:34;4.97;;;4.30;;
11847;SDS011;5983;49.966;8.052;2023-06-10T00:22:01;4.23;;;3.83;;
11847;SDS011;5983;49.966;8.052;2023-06-10T00:24:29;6.47;;;4.33;;
11847;SDS011;5983;49.966;8.052;2023-06-10T00:26:56;5.73;;;4.40;;
11847;SDS011;5983;49.966;8.052;2023-06-10T00:29:23;6.70;;;4.00;;
11847;SDS011;5983;49.966;8.052;2023-06-10T00:31:51;6.30;;;4.33;;
11847;SDS011;5983;49.966;8.052;2023-06-10T00:34:22;6.30;;;4.50;;
11847;SDS011;5983;49.966;8.052;2023-06-10T00:36:49;8.23;;;4.50;;
11847;SDS011;5983;49.966;8.052;2023-06-10T00:39:16;6.67;;;5.40;;
11847;SDS011;5983;49.966;8.052;2023-06-10T00:41:43;4.43;;;4.00;;
11847;SDS011;5983;49.966;8.052;2023-06-10T00:44:10;5.73;;;4.30;;
11847;SDS011;5983;49.966;8.052;2023-06-10T00:46:37;4.47;;;4.07;;
11847;SDS011;5983;49.966;8.052;2023-06-10T00:49:06;5.20;;;4.27;;
11847;SDS011;5983;49.966;8.052;2023-06-10T00:51:34;5.47;;;4.10;;
11847;SDS011;5983;49.966;8.052;2023-06-10T00:54:01;6.03;;;4.00;;
11847;SDS011;5983;49.966;8.052;2023-06-10T00:56:29;4.53;;;4.07;;
11847;SDS011;5983;49.966;8.052;2023-06-10T00:58:56;7.97;;;4.70;;
11847;SDS011;5983;49.966;8.052;2023-06-10T01:01:23;4.73;;;4.23;;
11847;SDS011;5983;49.966;8.052;2023-06-10T01:03:51;7.23;;;4.50;;
11847;SDS011;5983;49.966;8.052;2023-06-10T01:06:30;5.57;;;3.93;;
11847;SDS011;5983;49.966;8.052;2023-06-10T01:09:17;5.37;;;4.20;;
11847;SDS011;5983;49.966;8.052;2023-06-10T01:11:52;5.13;;;4.27;;
11847;SDS011;5983;49.966;8.052;2023-06-10T01:14:28;4.53;;;4.10;;
11847;SDS011;5983;49.966;8.052;2023-06-10T01:16:57;5.63;;;4.40;;
11847;SDS011;5983;49.966;8.052;2023-06-10T01:19:25;4.80;;;4.37;;
11847;SDS011;5983;49.966;8.052;2023-06-10T01:21:54;7.50;;;3.83;;
11847;SDS011;5983;49.966;8.052;2023-06-10T01:24:21;5.17;;;4.53;;
11847;SDS011;5983;49.966;8.052;2023-06-10T01:26:49;5.50;;;4.20;;
11847;SDS011;5983;49.966;8.052;2023-06-10T01:29:19;6.57;;;4.40;;
11847;SDS011;5983;49.966;8.052;2023-06-10T01:31:58;5.10;;;4.60;;
11847;SDS011;5983;49.966;8.052;2023-06-10T01:34:33;6.63;;;5.23;;
11847;SDS011;5983;49.966;8.052;2023-06-10T01:37:05;6.37;;;4.60;;
11847;SDS011;5983;49.966;8.052;2023-06-10T01:39:34;6.07;;;4.30;;
11847;SDS011;5983;49.966;8.052;2023-06-10T01:42:02;5.63;;;4.87;;
11847;SDS011;5983;49.966;8.052;2023-06-10T01:44:31;5.20;;;4.70;;
11847;SDS011;5983;49.966;8.052;2023-06-10T01:46:58;7.37;;;4.37;;
11847;SDS011;5983;49.966;8.052;2023-06-10T01:49:25;4.53;;;4.00;;
11847;SDS011;5983;49.966;8.052;2023-06-10T01:51:53;5.57;;;5.00;;
11847;SDS011;5983;49.966;8.052;2023-06-10T01:54:21;7.13;;;4.63;;
11847;SDS011;5983;49.966;8.052;2023-06-10T01:56:48;5.10;;;4.30;;
11847;SDS011;5983;49.966;8.052;2023-06-10T01:59:15;5.10;;;4.60;;
11847;SDS011;5983;49.966;8.052;2023-06-10T02:01:42;6.03;;;4.80;;
11847;SDS011;5983;49.966;8.052;2023-06-10T02:04:09;6.50;;;4.57;;
11847;SDS011;5983;49.966;8.052;2023-06-10T02:06:36;5.93;;;4.80;;
11847;SDS011;5983;49.966;8.052;2023-06-10T02:09:03;4.93;;;4.43;;
11847;SDS011;5983;49.966;8.052;2023-06-10T02:11:31;5.23;;;4.73;;
11847;SDS011;5983;49.966;8.052;2023-06-10T02:13:58;7.20;;;4.77;;
11847;SDS011;5983;49.966;8.052;2023-06-10T02:16:25;5.13;;;4.60;;
11847;SDS011;5983;49.966;8.052;2023-06-10T02:18:52;6.77;;;4.40;;
11847;SDS011;5983;49.966;8.052;2023-06-10T02:21:19;7.20;;;4.93;;
11847;SDS011;5983;49.966;8.052;2023-06-10T02:23:46;5.73;;;4.67;;
11847;SDS011;5983;49.966;8.052;2023-06-10T02:26:13;7.50;;;4.50;;
11847;SDS011;5983;49.966;8.052;2023-06-10T02:28:43;5.13;;;4.63;;
11847;SDS011;5983;49.966;8.052;2023-06-10T02:31:10;5.43;;;4.60;;
11847;SDS011;5983;49.966;8.052;2023-06-10T02:33:37;7.37;;;4.80;;
11847;SDS011;5983;49.966;8.052;2023-06-10T02:36:05;5.93;;;5.10;;
11847;SDS011;5983;49.966;8.052;2023-06-10T02:38:32;5.70;;;5.03;;
11847;SDS011;5983;49.966;8.052;2023-06-10T02:40:59;5.97;;;4.80;;
11847;SDS011;5983;49.966;8.052;2023-06-10T02:43:26;5.70;;;4.93;;
11847;SDS011;5983;49.966;8.052;2023-06-10T02:45:55;7.73;;;4.77;;
11847;SDS011;5983;49.966;8.052;2023-06-10T02:48:23;7.20;;;5.27;;
11847;SDS011;5983;49.966;8.052;2023-06-10T02:50:50;5.63;;;4.57;;
11847;SDS011;5983;49.966;8.052;2023-06-10T02:53:17;7.40;;;5.77;;
11847;SDS011;5983;49.966;8.052;2023-06-10T02:55:44;9.13;;;4.80;;
11847;SDS011;5983;49.966;8.052;2023-06-10T02:58:11;6.40;;;4.80;;
11847;SDS011;5983;49.966;8.052;2023-06-10T03:00:38;6.80;;;4.90;;
11847;SDS011;5983;49.966;8.052;2023-06-10T03:03:07;7.47;;;5.20;;
11847;SDS011;5983;49.966;8.052;2023-06-10T03:05:35;5.90;;;5.10;;
11847;SDS011;5983;49.966;8.052;2023-06-10T03:08:02;7.37;;;5.30;;
11847;SDS011;5983;49.966;8.052;2023-06-10T03:10:30;6.50;;;4.70;;
11847;SDS011;5983;49.966;8.052;2023-06-10T03:12:57;5.80;;;5.20;;
11847;SDS011;5983;49.966;8.052;2023-06-10T03:15:24;7.10;;;5.17;;
11847;SDS011;5983;49.966;8.052;2023-06-10T03:17:53;5.47;;;4.53;;
11847;SDS011;5983;49.966;8.052;2023-06-10T03:20:22;6.53;;;4.60;;
11847;SDS011;5983;49.966;8.052;2023-06-10T03:22:50;6.27;;;4.83;;
11847;SDS011;5983;49.966;8.052;2023-06-10T03:25:17;7.77;;;5.43;;
11847;SDS011;5983;49.966;8.052;2023-06-10T03:27:45;9.03;;;5.33;;
11847;SDS011;5983;49.966;8.052;2023-06-10T03:30:13;5.53;;;5.03;;
11847;SDS011;5983;49.966;8.052;2023-06-10T03:32:40;6.77;;;5.20;;
11847;SDS011;5983;49.966;8.052;2023-06-10T03:35:08;6.20;;;4.87;;
11847;SDS011;5983;49.966;8.052;2023-06-10T03:37:36;5.80;;;4.70;;
11847;SDS011;5983;49.966;8.052;2023-06-10T03:40:03;5.57;;;4.70;;
11847;SDS011;5983;49.966;8.052;2023-06-10T03:42:32;6.73;;;4.97;;
11847;SDS011;5983;49.966;8.052;2023-06-10T03:45:00;6.03;;;4.80;;
11847;SDS011;5983;49.966;8.052;2023-06-10T03:47:29;5.50;;;4.93;;
11847;SDS011;5983;49.966;8.052;2023-06-10T03:50:01;5.67;;;5.07;;
11847;SDS011;5983;49.966;8.052;2023-06-10T03:52:28;7.07;;;4.97;;
11847;SDS011;5983;49.966;8.052;2023-06-10T03:54:56;5.47;;;4.50;;
11847;SDS011;5983;49.966;8.052;2023-06-10T03:57:23;7.33;;;4.90;;
11847;SDS011;5983;49.966;8.052;2023-06-10T03:59:51;9.47;;;5.17;;
11847;SDS011;5983;49.966;8.052;2023-06-10T04:02:18;8.03;;;5.07;;
11847;SDS011;5983;49.966;8.052;2023-06-10T04:04:44;5.00;;;4.50;;
11847;SDS011;5983;49.966;8.052;2023-06-10T04:07:11;7.13;;;4.60;;
11847;SDS011;5983;49.966;8.052;2023-06-10T04:09:39;6.07;;;4.70;;
11847;SDS011;5983;49.966;8.052;2023-06-10T04:12:08;5.67;;;5.00;;
11847;SDS011;5983;49.966;8.052;2023-06-10T04:14:35;5.50;;;4.87;;
11847;SDS011;5983;49.966;8.052;2023-06-10T04:17:03;6.13;;;4.83;;
11847;SDS011;5983;49.966;8.052;2023-06-10T04:19:31;6.77;;;5.30;;
11847;SDS011;5983;49.966;8.052;2023-06-10T04:22:00;5.60;;;4.80;;
11847;SDS011;5983;49.966;8.052;2023-06-10T04:24:28;5.60;;;5.07;;
11847;SDS011;5983;49.966;8.052;2023-06-10T04:26:55;5.77;;;4.50;;
11847;SDS011;5983;49.966;8.052;2023-06-10T04:29:23;4.90;;;3.87;;
11847;SDS011;5983;49.966;8.052;2023-06-10T04:31:50;5.83;;;4.83;;
11847;SDS011;5983;49.966;8.052;2023-06-10T04:34:17;5.00;;;4.43;;
11847;SDS011;5983;49.966;8.052;2023-06-10T04:36:44;6.57;;;4.17;;
11847;SDS011;5983;49.966;8.052;2023-06-10T04:39:11;9.70;;;5.27;;
11847;SDS011;5983;49.966;8.052;2023-06-10T04:41:38;4.80;;;4.30;;
11847;SDS011;5983;49.966;8.052;2023-06-10T04:44:04;6.53;;;4.33;;
11847;SDS011;5983;49.966;8.052;2023-06-10T04:46:33;4.60;;;4.13;;
11847;SDS011;5983;49.966;8.052;2023-06-10T04:49:00;4.83;;;4.40;;
11847;SDS011;5983;49.966;8.052;2023-06-10T04:51:27;5.43;;;4.43;;
11847;SDS011;5983;49.966;8.052;2023-06-10T04:53:54;5.10;;;4.63;;
11847;SDS011;5983;49.966;8.052;2023-06-10T04:56:21;5.67;;;4.60;;
11847;SDS011;5983;49.966;8.052;2023-06-10T04:58:48;7.70;;;4.83;;
11847;SDS011;5983;49.966;8.052;2023-06-10T05:01:15;9.67;;;4.70;;
11847;SDS011;5983;49.966;8.052;2023-06-10T05:03:44;6.23;;;4.83;;
11847;SDS011;5983;49.966;8.052;2023-06-10T05:06:11;4.97;;;4.47;;
11847;SDS011;5983;49.966;8.052;2023-06-10T05:08:38;5.17;;;4.20;;
11847;SDS011;5983;49.966;8.052;2023-06-10T05:11:05;5.50;;;4.73;;
11847;SDS011;5983;49.966;8.052;2023-06-10T05:13:32;6.97;;;4.47;;
11847;SDS011;5983;49.966;8.052;2023-06-10T05:15:59;6.93;;;4.60;;
11847;SDS011;5983;49.966;8.052;2023-06-10T05:18:26;5.67;;;4.63;;
11847;SDS011;5983;49.966;8.052;2023-06-10T05:20:54;5.07;;;4.57;;
11847;SDS011;5983;49.966;8.052;2023-06-10T05:23:21;6.87;;;4.77;;
11847;SDS011;5983;49.966;8.052;2023-06-10T05:25:48;5.17;;;4.67;;
11847;SDS011;5983;49.966;8.052;2023-06-10T05:28:15;8.27;;;4.83;;
11847;SDS011;5983;49.966;8.052;2023-06-10T05:30:42;5.00;;;4.50;;
11847;SDS011;5983;49.966;8.052;2023-06-10T05:33:09;6.27;;;4.90;;
11847;SDS011;5983;49.966;8.052;2023-06-10T05:35:36;5.70;;;4.47;;
11847;SDS011;5983;49.966;8.052;2023-06-10T05:38:04;5.67;;;4.67;;
11847;SDS011;5983;49.966;8.052;2023-06-10T05:40:31;4.97;;;4.47;;
11847;SDS011;5983;49.966;8.052;2023-06-10T05:42:58;5.27;;;4.77;;
11847;SDS011;5983;49.966;8.052;2023-06-10T05:45:24;5.27;;;4.77;;
11847;SDS011;5983;49.966;8.052;2023-06-10T05:47:51;6.37;;;5.10;;
11847;SDS011;5983;49.966;8.052;2023-06-10T05:50:18;7.53;;;4.67;;
11847;SDS011;5983;49.966;8.052;2023-06-10T05:52:46;5.17;;;4.40;;
11847;SDS011;5983;49.966;8.052;2023-06-10T05:55:14;5.17;;;4.50;;
11847;SDS011;5983;49.966;8.052;2023-06-10T05:57:41;4.97;;;4.47;;
11847;SDS011;5983;49.966;8.052;2023-06-10T06:00:08;9.30;;;4.43;;
11847;SDS011;5983;49.966;8.052;2023-06-10T06:02:36;5.90;;;4.40;;
11847;SDS011;5983;49.966;8.052;2023-06-10T06:05:04;6.30;;;4.33;;
11847;SDS011;5983;49.966;8.052;2023-06-10T06:07:32;5.30;;;4.57;;
11847;SDS011;5983;49.966;8.052;2023-06-10T06:09:59;4.03;;;3.63;;
11847;SDS011;5983;49.966;8.052;2023-06-10T06:12:27;4.30;;;3.90;;
11847;SDS011;5983;49.966;8.052;2023-06-10T06:14:54;4.27;;;3.87;;
11847;SDS011;5983;49.966;8.052;2023-06-10T06:17:21;5.30;;;3.90;;
11847;SDS011;5983;49.966;8.052;2023-06-10T06:19:48;4.77;;;3.60;;
11847;SDS011;5983;49.966;8.052;2023-06-10T06:22:15;6.23;;;4.00;;
11847;SDS011;5983;49.966;8.052;2023-06-10T06:24:45;4.37;;;3.97;;
11847;SDS011;5983;49.966;8.052;2023-06-10T06:27:12;4.97;;;4.00;;
11847;SDS011;5983;49.966;8.052;2023-06-10T06:29:40;4.27;;;3.83;;
11847;SDS011;5983;49.966;8.052;2023-06-10T06:32:07;4.73;;;4.27;;
11847;SDS011;5983;49.966;8.052;2023-06-10T06:34:34;5.10;;;4.00;;
11847;SDS011;5983;49.966;8.052;2023-06-10T06:37:01;4.40;;;4.00;;
11847;SDS011;5983;49.966;8.052;2023-06-10T06:39:29;5.43;;;3.60;;
11847;SDS011;5983;49.966;8.052;2023-06-10T06:41:56;4.40;;;4.00;;
11847;SDS011;5983;49.966;8.052;2023-06-10T06:44:23;5.97;;;3.93;;
11847;SDS011;5983;49.966;8.052;2023-06-10T06:46:51;4.57;;;4.17;;
11847;SDS011;5983;49.966;8.052;2023-06-10T06:49:18;11.83;;;3.70;;
11847;SDS011;5983;49.966;8.052;2023-06-10T06:51:45;3.80;;;3.50;;
11847;SDS011;5983;49.966;8.052;2023-06-10T06:54:12;4.20;;;3.67;;
11847;SDS011;5983;49.966;8.052;2023-06-10T06:56:38;8.70;;;4.17;;
11847;SDS011;5983;49.966;8.052;2023-06-10T06:59:05;4.67;;;3.67;;
11847;SDS011;5983;49.966;8.052;2023-06-10T07:01:33;4.60;;;3.53;;
11847;SDS011;5983;49.966;8.052;2023-06-10T07:04:01;6.00;;;4.33;;
11847;SDS011;5983;49.966;8.052;2023-06-10T07:06:28;5.87;;;4.20;;
11847;SDS011;5983;49.966;8.052;2023-06-10T07:08:55;5.37;;;3.83;;
11847;SDS011;5983;49.966;8.052;2023-06-10T07:11:22;4.43;;;3.60;;
11847;SDS011;5983;49.966;8.052;2023-06-10T07:13:50;9.17;;;4.37;;
11847;SDS011;5983;49.966;8.052;2023-06-10T07:16:17;6.17;;;4.13;;
11847;SDS011;5983;49.966;8.052;2023-06-10T07:18:45;4.33;;;3.57;;
11847;SDS011;5983;49.966;8.052;2023-06-10T07:21:14;7.13;;;4.20;;
11847;SDS011;5983;49.966;8.052;2023-06-10T07:23:41;4.73;;;3.80;;
11847;SDS011;5983;49.966;8.052;2023-06-10T07:26:09;4.50;;;4.07;;
11847;SDS011;5983;49.966;8.052;2023-06-10T07:28:38;5.40;;;3.80;;
11847;SDS011;5983;49.966;8.052;2023-06-10T07:31:06;4.67;;;3.93;;
11847;SDS011;5983;49.966;8.052;2023-06-10T07:33:33;4.50;;;3.90;;
11847;SDS011;5983;49.966;8.052;2023-06-10T07:36:02;4.87;;;4.00;;
11847;SDS011;5983;49.966;8.052;2023-06-10T07:38:30;6.87;;;4.00;;
11847;SDS011;5983;49.966;8.052;2023-06-10T07:40:58;4.37;;;3.97;;
11847;SDS011;5983;49.966;8.052;2023-06-10T07:43:25;5.30;;;3.63;;
11847;SDS011;5983;49.966;8.052;2023-06-10T07:45:52;5.23;;;4.03;;
11847;SDS011;5983;49.966;8.052;2023-06-10T07:48:19;7.80;;;4.50;;
11847;SDS011;5983;49.966;8.052;2023-06-10T07:50:46;4.87;;;4.10;;
11847;SDS011;5983;49.966;8.052;2023-06-10T07:53:12;5.07;;;3.83;;
11847;SDS011;5983;49.966;8.052;2023-06-10T07:55:41;5.10;;;3.83;;
11847;SDS011;5983;49.966;8.052;2023-06-10T07:58:08;6.40;;;4.00;;
11847;SDS011;5983;49.966;8.052;2023-06-10T08:00:35;6.70;;;3.90;;
11847;SDS011;5983;49.966;8.052;2023-06-10T08:03:02;6.10;;;3.80;;
11847;SDS011;5983;49.966;8.052;2023-06-10T08:05:29;9.20;;;3.73;;
11847;SDS011;5983;49.966;8.052;2023-06-10T08:07:56;4.13;;;3.63;;
11847;SDS011;5983;49.966;8.052;2023-06-10T08:10:23;4.20;;;3.80;;
11847;SDS011;5983;49.966;8.052;2023-06-10T08:12:51;4.67;;;3.67;;
11847;SDS011;5983;49.966;8.052;2023-06-10T08:15:19;4.70;;;3.73;;
11847;SDS011;5983;49.966;8.052;2023-06-10T08:17:46;4.30;;;3.83;;
11847;SDS011;5983;49.966;8.052;2023-06-10T08:20:13;7.23;;;4.07;;
11847;SDS011;5983;49.966;8.052;2023-06-10T08:22:40;7.33;;;4.13;;
11847;SDS011;5983;49.966;8.052;2023-06-10T08:25:07;4.57;;;4.07;;
11847;SDS011;5983;49.966;8.052;2023-06-10T08:27:35;5.03;;;4.00;;
11847;SDS011;5983;49.966;8.052;2023-06-10T08:30:04;4.67;;;3.90;;
11847;SDS011;5983;49.966;8.052;2023-06-10T08:32:35;5.23;;;3.90;;
11847;SDS011;5983;49.966;8.052;2023-06-10T08:35:02;6.20;;;3.83;;
11847;SDS011;5983;49.966;8.052;2023-06-10T08:37:30;4.10;;;3.70;;
11847;SDS011;5983;49.966;8.052;2023-06-10T08:39:57;4.73;;;3.80;;
11847;SDS011;5983;49.966;8.052;2023-06-10T08:42:24;4.50;;;4.10;;
11847;SDS011;5983;49.966;8.052;2023-06-10T08:45:00;4.30;;;3.90;;
11847;SDS011;5983;49.966;8.052;2023-06-10T08:47:31;5.20;;;4.33;;
11847;SDS011;5983;49.966;8.052;2023-06-10T08:50:02;4.30;;;3.90;;
11847;SDS011;5983;49.966;8.052;2023-06-10T08:52:34;4.80;;;4.30;;
11847;SDS011;5983;49.966;8.052;2023-06-10T08:55:04;4.80;;;4.13;;
11847;SDS011;5983;49.966;8.052;2023-06-10T08:57:37;5.33;;;4.13;;
11847;SDS011;5983;49.966;8.052;2023-06-10T09:00:06;5.17;;;4.30;;
11847;SDS011;5983;49.966;8.052;2023-06-10T09:02:35;4.77;;;4.10;;
11847;SDS011;5983;49.966;8.052;2023-06-10T09:05:03;5.37;;;4.47;;
11847;SDS011;5983;49.966;8.052;2023-06-10T09:07:31;6.10;;;3.93;;
11847;SDS011;5983;49.966;8.052;2023-06-10T09:09:59;5.27;;;4.37;;
11847;SDS011;5983;49.966;8.052;2023-06-10T09:12:31;4.57;;;4.10;;
11847;SDS011;5983;49.966;8.052;2023-06-10T09:14:58;5.13;;;4.20;;
11847;SDS011;5983;49.966;8.052;2023-06-10T09:17:28;4.10;;;3.70;;
11847;SDS011;5983;49.966;8.052;2023-06-10T09:19:55;5.13;;;4.23;;
11847;SDS011;5983;49.966;8.052;2023-06-10T09:22:23;4.47;;;4.07;;
11847;SDS011;5983;49.966;8.052;2023-06-10T09:24:51;5.60;;;4.40;;
11847;SDS011;5983;49.966;8.052;2023-06-10T09:27:29;6.37;;;4.30;;
11847;SDS011;5983;49.966;8.052;2023-06-10T09:29:57;4.73;;;4.23;;
11847;SDS011;5983;49.966;8.052;2023-06-10T09:32:24;4.97;;;4.00;;
11847;SDS011;5983;49.966;8.052;2023-06-10T09:34:53;4.20;;;3.53;;
11847;SDS011;5983;49.966;8.052;2023-06-10T09:37:21;5.83;;;4.20;;
11847;SDS011;5983;49.966;8.052;2023-06-10T09:42:39;4.43;;;3.97;;
11847;SDS011;5983;49.966;8.052;2023-06-10T09:45:07;6.40;;;3.90;;
11847;SDS011;5983;49.966;8.052;2023-06-10T09:47:34;5.17;;;3.83;;
11847;SDS011;5983;49.966;8.052;2023-06-10T09:50:03;5.30;;;4.00;;
11847;SDS011;5983;49.966;8.052;2023-06-10T09:52:30;4.63;;;3.90;;
11847;SDS011;5983;49.966;8.052;2023-06-10T09:55:01;4.83;;;4.23;;
11847;SDS011;5983;49.966;8.052;2023-06-10T09:57:30;5.00;;;3.70;;
11847;SDS011;5983;49.966;8.052;2023-06-10T09:59:58;4.50;;;4.10;;
11847;SDS011;5983;49.966;8.052;2023-06-10T10:02:30;6.87;;;3.80;;
11847;SDS011;5983;49.966;8.052;2023-06-10T10:05:03;5.97;;;3.80;;
11847;SDS011;5983;49.966;8.052;2023-06-10T10:07:31;5.70;;;3.77;;
11847;SDS011;5983;49.966;8.052;2023-06-10T10:09:58;5.60;;;3.97;;
11847;SDS011;5983;49.966;8.052;2023-06-10T10:12:25;7.10;;;4.50;;
11847;SDS011;5983;49.966;8.052;2023-06-10T10:14:52;5.27;;;4.43;;
11847;SDS011;5983;49.966;8.052;2023-06-10T10:17:22;9.83;;;3.87;;
11847;SDS011;5983;49.966;8.052;2023-06-10T10:19:53;5.77;;;3.43;;
11847;SDS011;5983;49.966;8.052;2023-06-10T10:22:29;4.20;;;3.73;;
11847;SDS011;5983;49.966;8.052;2023-06-10T10:25:06;4.07;;;3.53;;
11847;SDS011;5983;49.966;8.052;2023-06-10T10:27:40;4.17;;;3.77;;
11847;SDS011;5983;49.966;8.052;2023-06-10T10:30:12;4.30;;;3.80;;
11847;SDS011;5983;49.966;8.052;2023-06-10T10:32:45;5.37;;;3.63;;
11847;SDS011;5983;49.966;8.052;2023-06-10T10:35:21;8.80;;;4.10;;
11847;SDS011;5983;49.966;8.052;2023-06-10T10:37:51;5.60;;;4.83;;
11847;SDS011;5983;49.966;8.052;2023-06-10T10:40:20;6.33;;;4.30;;
11847;SDS011;5983;49.966;8.052;2023-06-10T10:42:48;5.40;;;3.87;;
11847;SDS011;5983;49.966;8.052;2023-06-10T10:45:16;4.00;;;3.57;;
11847;SDS011;5983;49.966;8.052;2023-06-10T10:47:45;5.07;;;4.30;;
11847;SDS011;5983;49.966;8.052;2023-06-10T10:50:13;3.50;;;3.20;;
11847;SDS011;5983;49.966;8.052;2023-06-10T10:52:53;4.23;;;3.80;;
11847;SDS011;5983;49.966;8.052;2023-06-10T10:55:22;11.27;;;4.23;;
11847;SDS011;5983;49.966;8.052;2023-06-10T10:57:56;4.20;;;3.60;;
11847;SDS011;5983;49.966;8.052;2023-06-10T11:00:25;4.67;;;3.57;;
11847;SDS011;5983;49.966;8.052;2023-06-10T11:02:57;5.00;;;3.83;;
11847;SDS011;5983;49.966;8.052;2023-06-10T11:05:36;5.63;;;3.60;;
11847;SDS011;5983;49.966;8.052;2023-06-10T11:08:07;4.23;;;3.83;;
11847;SDS011;5983;49.966;8.052;2023-06-10T11:10:35;7.73;;;4.00;;
11847;SDS011;5983;49.966;8.052;2023-06-10T11:13:07;4.73;;;3.97;;
11847;SDS011;5983;49.966;8.052;2023-06-10T11:15:38;4.43;;;3.60;;
11847;SDS011;5983;49.966;8.052;2023-06-10T11:18:10;8.10;;;4.17;;
11847;SDS011;5983;49.966;8.052;2023-06-10T11:20:53;4.97;;;4.07;;
11847;SDS011;5983;49.966;8.052;2023-06-10T11:23:34;6.63;;;4.20;;
11847;SDS011;5983;49.966;8.052;2023-06-10T11:26:12;6.43;;;3.80;;
11847;SDS011;5983;49.966;8.052;2023-06-10T11:29:04;4.70;;;4.10;;
11847;SDS011;5983;49.966;8.052;2023-06-10T11:31:40;4.07;;;3.70;;
11847;SDS011;5983;49.966;8.052;2023-06-10T11:34:12;4.70;;;3.80;;
11847;SDS011;5983;49.966;8.052;2023-06-10T11:36:41;4.00;;;3.60;;
11847;SDS011;5983;49.966;8.052;2023-06-10T11:39:11;4.90;;;3.53;;
11847;SDS011;5983;49.966;8.052;2023-06-10T11:41:39;6.20;;;4.33;;
11847;SDS011;5983;49.966;8.052;2023-06-10T11:44:10;7.53;;;3.80;;
11847;SDS011;5983;49.966;8.052;2023-06-10T11:46:38;5.00;;;4.07;;
11847;SDS011;5983;49.966;8.052;2023-06-10T11:49:07;5.50;;;3.83;;
11847;SDS011;5983;49.966;8.052;2023-06-10T11:51:35;4.10;;;3.70;;
11847;SDS011;5983;49.966;8.052;2023-06-10T11:54:05;7.00;;;3.70;;
11847;SDS011;5983;49.966;8.052;2023-06-10T11:56:35;5.30;;;3.43;;
11847;SDS011;5983;49.966;8.052;2023-06-10T11:59:03;3.93;;;3.60;;
11847;SDS011;5983;49.966;8.052;2023-06-10T12:01:32;6.47;;;4.10;;
11847;SDS011;5983;49.966;8.052;2023-06-10T12:04:02;5.37;;;3.80;;
11847;SDS011;5983;49.966;8.052;2023-06-10T12:06:38;5.13;;;3.70;;
11847;SDS011;5983;49.966;8.052;2023-06-10T12:09:06;3.53;;;3.23;;
11847;SDS011;5983;49.966;8.052;2023-06-10T12:11:41;4.50;;;4.10;;
11847;SDS011;5983;49.966;8.052;2023-06-10T12:14:09;6.70;;;3.70;;
11847;SDS011;5983;49.966;8.052;2023-06-10T12:16:36;4.00;;;3.70;;
11847;SDS011;5983;49.966;8.052;2023-06-10T12:19:04;5.90;;;4.23;;
11847;SDS011;5983;49.966;8.052;2023-06-10T12:21:33;4.30;;;3.90;;
11847;SDS011;5983;49.966;8.052;2023-06-10T12:24:05;4.23;;;3.83;;
11847;SDS011;5983;49.966;8.052;2023-06-10T12:26:35;4.07;;;3.67;;
11847;SDS011;5983;49.966;8.052;2023-06-10T12:29:13;4.77;;;3.80;;
11847;SDS011;5983;49.966;8.052;2023-06-10T12:31:54;3.73;;;3.43;;
11847;SDS011;5983;49.966;8.052;2023-06-10T12:34:29;4.40;;;3.70;;
11847;SDS011;5983;49.966;8.052;2023-06-10T12:36:59;5.40;;;3.70;;
11847;SDS011;5983;49.966;8.052;2023-06-10T12:39:26;6.00;;;3.80;;
11847;SDS011;5983;49.966;8.052;2023-06-10T12:41:53;3.73;;;3.43;;
11847;SDS011;5983;49.966;8.052;2023-06-10T12:44:29;4.23;;;3.47;;
11847;SDS011;5983;49.966;8.052;2023-06-10T12:47:00;3.77;;;3.47;;
11847;SDS011;5983;49.966;8.052;2023-06-10T12:49:34;3.80;;;3.50;;
11847;SDS011;5983;49.966;8.052;2023-06-10T12:52:02;6.97;;;3.80;;
11847;SDS011;5983;49.966;8.052;2023-06-10T12:54:29;5.03;;;3.40;;
11847;SDS011;5983;49.966;8.052;2023-06-10T12:56:57;4.47;;;3.50;;
11847;SDS011;5983;49.966;8.052;2023-06-10T12:59:24;3.70;;;3.40;;
11847;SDS011;5983;49.966;8.052;2023-06-10T13:01:53;3.90;;;3.50;;
11847;SDS011;5983;49.966;8.052;2023-06-10T13:04:21;4.00;;;3.20;;
11847;SDS011;5983;49.966;8.052;2023-06-10T13:06:48;3.67;;;3.30;;
11847;SDS011;5983;49.966;8.052;2023-06-10T13:09:15;5.43;;;3.20;;
11847;SDS011;5983;49.966;8.052;2023-06-10T13:11:42;3.40;;;3.10;;
11847;SDS011;5983;49.966;8.052;2023-06-10T13:14:09;3.43;;;3.13;;
11847;SDS011;5983;49.966;8.052;2023-06-10T13:16:37;7.20;;;3.40;;
11847;SDS011;5983;49.966;8.052;2023-06-10T13:19:06;6.20;;;3.30;;
11847;SDS011;5983;49.966;8.052;2023-06-10T13:21:33;3.20;;;2.90;;
11847;SDS011;5983;49.966;8.052;2023-06-10T13:24:00;3.40;;;3.10;;
11847;SDS011;5983;49.966;8.052;2023-06-10T13:26:28;4.20;;;3.30;;
11847;SDS011;5983;49.966;8.052;2023-06-10T13:28:55;4.60;;;3.17;;
11847;SDS011;5983;49.966;8.052;2023-06-10T13:31:23;8.37;;;3.87;;
11847;SDS011;5983;49.966;8.052;2023-06-10T13:33:50;5.80;;;3.53;;
11847;SDS011;5983;49.966;8.052;2023-06-10T13:36:18;6.23;;;3.63;;
11847;SDS011;5983;49.966;8.052;2023-06-10T13:38:45;5.87;;;3.30;;
11847;SDS011;5983;49.966;8.052;2023-06-10T13:41:12;5.40;;;3.50;;
11847;SDS011;5983;49.966;8.052;2023-06-10T13:43:39;4.07;;;3.07;;
11847;SDS011;5983;49.966;8.052;2023-06-10T13:46:06;4.47;;;2.93;;
11847;SDS011;5983;49.966;8.052;2023-06-10T13:48:33;3.50;;;3.20;;
11847;SDS011;5983;49.966;8.052;2023-06-10T13:51:00;4.10;;;3.30;;
11847;SDS011;5983;49.966;8.052;2023-06-10T13:53:29;9.83;;;3.70;;
11847;SDS011;5983;49.966;8.052;2023-06-10T13:55:55;3.40;;;3.10;;
11847;SDS011;5983;49.966;8.052;2023-06-10T13:58:22;5.17;;;3.47;;
11847;SDS011;5983;49.966;8.052;2023-06-10T14:00:49;4.37;;;3.20;;
11847;SDS011;5983;49.966;8.052;2023-06-10T14:03:16;3.27;;;2.97;;
11847;SDS011;5983;49.966;8.052;2023-06-10T14:05:43;3.60;;;3.30;;
11847;SDS011;5983;49.966;8.052;2023-06-10T14:08:10;3.60;;;3.10;;
11847;SDS011;5983;49.966;8.052;2023-06-10T14:10:39;4.07;;;3.37;;
11847;SDS011;5983;49.966;8.052;2023-06-10T14:13:06;8.17;;;3.00;;
11847;SDS011;5983;49.966;8.052;2023-06-10T14:15:33;4.60;;;2.90;;
11847;SDS011;5983;49.966;8.052;2023-06-10T14:18:01;3.73;;;3.40;;
11847;SDS011;5983;49.966;8.052;2023-06-10T14:20:28;3.63;;;3.30;;
11847;SDS011;5983;49.966;8.052;2023-06-10T14:22:56;4.20;;;3.40;;
11847;SDS011;5983;49.966;8.052;2023-06-10T14:25:24;5.13;;;3.53;;
11847;SDS011;5983;49.966;8.052;2023-06-10T14:27:52;3.53;;;3.23;;
11847;SDS011;5983;49.966;8.052;2023-06-10T14:30:20;4.23;;;3.83;;
11847;SDS011;5983;49.966;8.052;2023-06-10T14:32:47;4.97;;;3.60;;
11847;SDS011;5983;49.966;8.052;2023-06-10T14:35:14;4.03;;;3.63;;
11847;SDS011;5983;49.966;8.052;2023-06-10T14:37:41;5.13;;;3.20;;
11847;SDS011;5983;49.966;8.052;2023-06-10T14:40:08;3.53;;;3.10;;
11847;SDS011;5983;49.966;8.052;2023-06-10T14:42:35;6.07;;;3.27;;
11847;SDS011;5983;49.966;8.052;2023-06-10T14:45:04;3.83;;;3.50;;
11847;SDS011;5983;49.966;8.052;2023-06-10T14:47:35;4.10;;;3.30;;
11847;SDS011;5983;49.966;8.052;2023-06-10T14:50:02;3.23;;;2.93;;
11847;SDS011;5983;49.966;8.052;2023-06-10T14:52:29;5.67;;;3.40;;
11847;SDS011;5983;49.966;8.052;2023-06-10T14:54:56;4.03;;;3.63;;
11847;SDS011;5983;49.966;8.052;2023-06-10T14:57:23;3.60;;;3.17;;
11847;SDS011;5983;49.966;8.052;2023-06-10T14:59:50;3.80;;;3.20;;
11847;SDS011;5983;49.966;8.052;2023-06-10T15:02:18;8.03;;;3.63;;
11847;SDS011;5983;49.966;8.052;2023-06-10T15:04:45;3.03;;;2.83;;
11847;SDS011;5983;49.966;8.052;2023-06-10T15:07:12;3.47;;;3.00;;
11847;SDS011;5983;49.966;8.052;2023-06-10T15:09:40;3.57;;;3.23;;
11847;SDS011;5983;49.966;8.052;2023-06-10T15:12:07;3.97;;;3.57;;